sensor_id;sensor_type;location;lat;lon;timestamp;temperature;humidity
2112;DHT22;1062;52.538;13.400;2023-05-01T00:00:09;7.50;99.90
2112;DHT22;1062;52.538;13.400;2023-05-01T00:02:35;7.40;99.90
2112;DHT22;1062;52.538;13.400;2023-05-01T00:05:01;7.40;99.90
2112;DHT22;1062;52.538;13.400;2023-05-01T00:07:28;7.40;99.90
2112;DHT22;1062;52.538;13.400;2023-05-01T00:09:55;7.30;99.90
2112;DHT22;1062;52.538;13.400;2023-05-01T00:12:21;7.30;99.90
2112;DHT22;1062;52.538;13.400;2023-05-01T00:14:47;7.20;99.90
2112;DHT22;1062;52.538;13.400;2023-05-01T00:17:12;7.20;99.90
2112;DHT22;1062;52.538;13.400;2023-05-01T00:19:38;7.20;99.90
2112;DHT22;1062;52.538;13.400;2023-05-01T00:22:04;7.20;99.90
2112;DHT22;1062;52.538;13.400;2023-05-01T00:24:29;7.20;99.90
2112;DHT22;1062;52.538;13.400;2023-05-01T00:26:55;7.20;99.90
2112;DHT22;1062;52.538;13.400;2023-05-01T00:29:21;7.20;99.90
2112;DHT22;1062;52.538;13.400;2023-05-01T00:31:47;7.20;99.90
2112;DHT22;1062;52.538;13.400;2023-05-01T00:34:12;7.20;99.90
2112;DHT22;1062;52.538;13.400;2023-05-01T00:36:38;7.20;99.90
2112;DHT22;1062;52.538;13.400;2023-05-01T00:39:04;7.20;99.90
2112;DHT22;1062;52.538;13.400;2023-05-01T00:41:32;7.20;99.90
2112;DHT22;1062;52.538;13.400;2023-05-01T00:43:58;7.30;99.90
2112;DHT22;1062;52.538;13.400;2023-05-01T00:46:24;7.30;99.90
2112;DHT22;1062;52.538;13.400;2023-05-01T00:48:51;7.20;99.90
2112;DHT22;1062;52.538;13.400;2023-05-01T00:51:17;7.20;99.90
2112;DHT22;1062;52.538;13.400;2023-05-01T00:53:44;7.20;99.90
2112;DHT22;1062;52.538;13.400;2023-05-01T00:56:10;7.20;99.90
2112;DHT22;1062;52.538;13.400;2023-05-01T00:58:36;7.30;99.90
2112;DHT22;1062;52.538;13.400;2023-05-01T01:01:02;7.20;99.90
2112;DHT22;1062;52.538;13.400;2023-05-01T01:03:29;7.20;99.90
2112;DHT22;1062;52.538;13.400;2023-05-01T01:15:01;7.10;99.90
2112;DHT22;1062;52.538;13.400;2023-05-01T01:17:37;7.10;99.90
2112;DHT22;1062;52.538;13.400;2023-05-01T01:20:30;7.00;99.90
2112;DHT22;1062;52.538;13.400;2023-05-01T01:34:24;6.80;99.90
2112;DHT22;1062;52.538;13.400;2023-05-01T01:40:10;6.80;99.90
2112;DHT22;1062;52.538;13.400;2023-05-01T01:42:40;6.80;99.90
2112;DHT22;1062;52.538;13.400;2023-05-01T01:45:16;6.80;99.90
2112;DHT22;1062;52.538;13.400;2023-05-01T01:47:44;6.80;99.90
2112;DHT22;1062;52.538;13.400;2023-05-01T01:50:10;6.80;99.90
2112;DHT22;1062;52.538;13.400;2023-05-01T01:52:39;6.80;99.90
2112;DHT22;1062;52.538;13.400;2023-05-01T01:55:10;6.80;99.90
2112;DHT22;1062;52.538;13.400;2023-05-01T01:57:37;6.80;99.90
2112;DHT22;1062;52.538;13.400;2023-05-01T02:00:05;6.70;99.90
2112;DHT22;1062;52.538;13.400;2023-05-01T02:02:34;6.70;99.90
2112;DHT22;1062;52.538;13.400;2023-05-01T02:05:01;6.70;99.90
2112;DHT22;1062;52.538;13.400;2023-05-01T02:07:28;6.70;99.90
2112;DHT22;1062;52.538;13.400;2023-05-01T02:09:55;6.70;99.90
2112;DHT22;1062;52.538;13.400;2023-05-01T02:12:22;6.60;99.90
2112;DHT22;1062;52.538;13.400;2023-05-01T02:14:50;6.60;99.90
2112;DHT22;1062;52.538;13.400;2023-05-01T02:17:19;6.60;99.90
2112;DHT22;1062;52.538;13.400;2023-05-01T02:19:45;6.70;99.90
2112;DHT22;1062;52.538;13.400;2023-05-01T02:22:11;6.60;99.90
2112;DHT22;1062;52.538;13.400;2023-05-01T02:24:38;6.60;99.90
2112;DHT22;1062;52.538;13.400;2023-05-01T02:27:13;6.60;99.90
2112;DHT22;1062;52.538;13.400;2023-05-01T02:29:39;6.60;99.90
2112;DHT22;1062;52.538;13.400;2023-05-01T02:32:05;6.60;99.90
2112;DHT22;1062;52.538;13.400;2023-05-01T02:34:33;6.50;99.90
2112;DHT22;1062;52.538;13.400;2023-05-01T02:36:59;6.50;99.90
2112;DHT22;1062;52.538;13.400;2023-05-01T02:39:25;6.40;99.90
2112;DHT22;1062;52.538;13.400;2023-05-01T02:44:17;6.40;99.90
2112;DHT22;1062;52.538;13.400;2023-05-01T02:46:44;6.40;99.90
2112;DHT22;1062;52.538;13.400;2023-05-01T02:49:11;6.40;99.90
2112;DHT22;1062;52.538;13.400;2023-05-01T02:51:38;6.40;99.90
2112;DHT22;1062;52.538;13.400;2023-05-01T02:54:04;6.40;99.90
2112;DHT22;1062;52.538;13.400;2023-05-01T02:56:30;6.40;99.90
2112;DHT22;1062;52.538;13.400;2023-05-01T02:58:56;6.40;99.90
2112;DHT22;1062;52.538;13.400;2023-05-01T03:01:22;6.30;99.90
2112;DHT22;1062;52.538;13.400;2023-05-01T03:03:47;6.30;99.90
2112;DHT22;1062;52.538;13.400;2023-05-01T03:06:13;6.30;99.90
2112;DHT22;1062;52.538;13.400;2023-05-01T03:08:39;6.30;99.90
2112;DHT22;1062;52.538;13.400;2023-05-01T03:11:08;6.30;99.90
2112;DHT22;1062;52.538;13.400;2023-05-01T03:13:34;6.30;99.90
2112;DHT22;1062;52.538;13.400;2023-05-01T03:16:00;6.30;99.90
2112;DHT22;1062;52.538;13.400;2023-05-01T03:18:26;6.30;99.90
2112;DHT22;1062;52.538;13.400;2023-05-01T03:20:53;6.30;99.90
2112;DHT22;1062;52.538;13.400;2023-05-01T03:23:18;6.20;99.90
2112;DHT22;1062;52.538;13.400;2023-05-01T03:25:44;6.20;99.90
2112;DHT22;1062;52.538;13.400;2023-05-01T03:28:10;6.20;99.90
2112;DHT22;1062;52.538;13.400;2023-05-01T03:30:35;6.20;99.90
2112;DHT22;1062;52.538;13.400;2023-05-01T03:33:01;6.20;99.90
2112;DHT22;1062;52.538;13.400;2023-05-01T03:35:27;6.20;99.90
2112;DHT22;1062;52.538;13.400;2023-05-01T03:37:52;6.10;99.90
2112;DHT22;1062;52.538;13.400;2023-05-01T03:40:18;6.10;99.90
2112;DHT22;1062;52.538;13.400;2023-05-01T03:42:44;6.10;99.90
2112;DHT22;1062;52.538;13.400;2023-05-01T03:45:10;6.10;99.90
2112;DHT22;1062;52.538;13.400;2023-05-01T03:47:35;6.10;99.90
2112;DHT22;1062;52.538;13.400;2023-05-01T03:50:01;6.10;99.90
2112;DHT22;1062;52.538;13.400;2023-05-01T03:52:27;6.10;99.90
2112;DHT22;1062;52.538;13.400;2023-05-01T03:54:53;6.10;99.90
2112;DHT22;1062;52.538;13.400;2023-05-01T03:57:18;6.20;99.90
2112;DHT22;1062;52.538;13.400;2023-05-01T03:59:48;6.20;99.90
2112;DHT22;1062;52.538;13.400;2023-05-01T04:02:14;6.20;99.90
2112;DHT22;1062;52.538;13.400;2023-05-01T04:04:40;6.30;99.90
2112;DHT22;1062;52.538;13.400;2023-05-01T04:07:06;6.30;99.90
2112;DHT22;1062;52.538;13.400;2023-05-01T04:09:31;6.40;99.90
2112;DHT22;1062;52.538;13.400;2023-05-01T04:11:57;6.40;99.90
2112;DHT22;1062;52.538;13.400;2023-05-01T04:14:23;6.40;99.90
2112;DHT22;1062;52.538;13.400;2023-05-01T04:16:48;6.40;99.90
2112;DHT22;1062;52.538;13.400;2023-05-01T04:19:15;6.50;99.90
2112;DHT22;1062;52.538;13.400;2023-05-01T04:21:41;6.50;99.90
2112;DHT22;1062;52.538;13.400;2023-05-01T04:24:06;6.50;99.90
2112;DHT22;1062;52.538;13.400;2023-05-01T04:26:32;6.60;99.90
2112;DHT22;1062;52.538;13.400;2023-05-01T04:28:57;6.60;99.90
2112;DHT22;1062;52.538;13.400;2023-05-01T04:31:25;6.70;99.90
2112;DHT22;1062;52.538;13.400;2023-05-01T04:33:50;6.70;99.90
2112;DHT22;1062;52.538;13.400;2023-05-01T04:36:16;6.70;99.90
2112;DHT22;1062;52.538;13.400;2023-05-01T04:38:41;6.80;99.90
2112;DHT22;1062;52.538;13.400;2023-05-01T04:41:07;6.80;99.90
2112;DHT22;1062;52.538;13.400;2023-05-01T04:43:33;6.90;99.90
2112;DHT22;1062;52.538;13.400;2023-05-01T04:45:58;6.90;99.90
2112;DHT22;1062;52.538;13.400;2023-05-01T04:48:24;7.00;99.90
2112;DHT22;1062;52.538;13.400;2023-05-01T04:50:50;7.00;99.90
2112;DHT22;1062;52.538;13.400;2023-05-01T04:53:15;7.00;99.90
2112;DHT22;1062;52.538;13.400;2023-05-01T04:55:42;7.10;99.90
2112;DHT22;1062;52.538;13.400;2023-05-01T04:58:07;7.10;99.90
2112;DHT22;1062;52.538;13.400;2023-05-01T05:00:33;7.20;99.90
2112;DHT22;1062;52.538;13.400;2023-05-01T05:02:59;7.20;99.90
2112;DHT22;1062;52.538;13.400;2023-05-01T05:05:25;7.30;99.90
2112;DHT22;1062;52.538;13.400;2023-05-01T05:07:50;7.40;99.90
2112;DHT22;1062;52.538;13.400;2023-05-01T05:10:16;7.50;99.90
2112;DHT22;1062;52.538;13.400;2023-05-01T05:12:41;7.60;99.90
2112;DHT22;1062;52.538;13.400;2023-05-01T05:15:07;7.70;99.90
2112;DHT22;1062;52.538;13.400;2023-05-01T05:17:33;7.80;99.90
2112;DHT22;1062;52.538;13.400;2023-05-01T05:19:58;8.10;99.90
2112;DHT22;1062;52.538;13.400;2023-05-01T05:22:24;8.50;99.90
2112;DHT22;1062;52.538;13.400;2023-05-01T05:24:56;9.10;99.90
2112;DHT22;1062;52.538;13.400;2023-05-01T05:27:28;9.70;99.90
2112;DHT22;1062;52.538;13.400;2023-05-01T05:29:54;9.90;99.90
2112;DHT22;1062;52.538;13.400;2023-05-01T05:32:19;10.30;99.90
2112;DHT22;1062;52.538;13.400;2023-05-01T05:34:45;10.80;99.90
2112;DHT22;1062;52.538;13.400;2023-05-01T05:37:11;11.10;99.90
2112;DHT22;1062;52.538;13.400;2023-05-01T05:39:37;11.60;99.90
2112;DHT22;1062;52.538;13.400;2023-05-01T05:42:02;11.80;99.90
2112;DHT22;1062;52.538;13.400;2023-05-01T05:44:28;12.00;99.90
2112;DHT22;1062;52.538;13.400;2023-05-01T05:46:56;12.40;99.90
2112;DHT22;1062;52.538;13.400;2023-05-01T05:49:21;12.40;99.90
2112;DHT22;1062;52.538;13.400;2023-05-01T05:51:47;12.20;99.90
2112;DHT22;1062;52.538;13.400;2023-05-01T05:54:12;12.70;99.90
2112;DHT22;1062;52.538;13.400;2023-05-01T05:56:38;13.30;99.90
2112;DHT22;1062;52.538;13.400;2023-05-01T05:59:03;13.60;99.40
2112;DHT22;1062;52.538;13.400;2023-05-01T06:01:30;13.90;98.50
2112;DHT22;1062;52.538;13.400;2023-05-01T06:03:56;14.30;98.50
2112;DHT22;1062;52.538;13.400;2023-05-01T06:06:22;14.50;96.10
2112;DHT22;1062;52.538;13.400;2023-05-01T06:08:48;14.50;97.10
2112;DHT22;1062;52.538;13.400;2023-05-01T06:11:14;14.20;97.00
2112;DHT22;1062;52.538;13.400;2023-05-01T06:13:40;14.50;95.50
2112;DHT22;1062;52.538;13.400;2023-05-01T06:16:06;14.50;95.10
2112;DHT22;1062;52.538;13.400;2023-05-01T06:18:32;14.90;94.30
2112;DHT22;1062;52.538;13.400;2023-05-01T06:20:57;15.60;93.40
2112;DHT22;1062;52.538;13.400;2023-05-01T06:23:24;14.80;93.90
2112;DHT22;1062;52.538;13.400;2023-05-01T06:25:50;15.30;93.60
2112;DHT22;1062;52.538;13.400;2023-05-01T06:28:15;15.90;92.70
2112;DHT22;1062;52.538;13.400;2023-05-01T06:30:41;16.00;92.10
2112;DHT22;1062;52.538;13.400;2023-05-01T06:33:07;16.70;90.90
2112;DHT22;1062;52.538;13.400;2023-05-01T06:35:34;17.10;90.00
2112;DHT22;1062;52.538;13.400;2023-05-01T06:38:00;17.20;88.50
2112;DHT22;1062;52.538;13.400;2023-05-01T06:40:27;16.60;85.90
2112;DHT22;1062;52.538;13.400;2023-05-01T06:42:52;16.30;87.90
2112;DHT22;1062;52.538;13.400;2023-05-01T06:45:18;16.70;89.70
2112;DHT22;1062;52.538;13.400;2023-05-01T06:47:43;17.00;86.50
2112;DHT22;1062;52.538;13.400;2023-05-01T06:50:09;17.00;88.30
2112;DHT22;1062;52.538;13.400;2023-05-01T06:52:35;17.10;90.70
2112;DHT22;1062;52.538;13.400;2023-05-01T06:55:01;17.40;88.50
2112;DHT22;1062;52.538;13.400;2023-05-01T06:57:26;16.90;88.50
2112;DHT22;1062;52.538;13.400;2023-05-01T06:59:52;17.10;87.60
2112;DHT22;1062;52.538;13.400;2023-05-01T07:02:18;18.20;85.00
2112;DHT22;1062;52.538;13.400;2023-05-01T07:04:43;18.30;83.60
2112;DHT22;1062;52.538;13.400;2023-05-01T07:07:09;18.10;86.60
2112;DHT22;1062;52.538;13.400;2023-05-01T07:09:35;18.50;83.40
2112;DHT22;1062;52.538;13.400;2023-05-01T07:12:00;19.00;80.50
2112;DHT22;1062;52.538;13.400;2023-05-01T07:14:27;17.50;82.70
2112;DHT22;1062;52.538;13.400;2023-05-01T07:16:53;18.20;83.70
2112;DHT22;1062;52.538;13.400;2023-05-01T07:19:19;19.20;82.00
2112;DHT22;1062;52.538;13.400;2023-05-01T07:21:45;19.80;76.60
2112;DHT22;1062;52.538;13.400;2023-05-01T07:24:11;19.10;76.30
2112;DHT22;1062;52.538;13.400;2023-05-01T07:26:37;19.60;75.80
2112;DHT22;1062;52.538;13.400;2023-05-01T07:29:03;20.00;75.40
2112;DHT22;1062;52.538;13.400;2023-05-01T07:31:29;18.90;75.60
2112;DHT22;1062;52.538;13.400;2023-05-01T07:33:55;18.20;75.50
2112;DHT22;1062;52.538;13.400;2023-05-01T07:36:21;18.60;78.40
2112;DHT22;1062;52.538;13.400;2023-05-01T07:38:47;18.70;74.40
2112;DHT22;1062;52.538;13.400;2023-05-01T07:41:13;18.20;77.30
2112;DHT22;1062;52.538;13.400;2023-05-01T07:43:38;18.60;76.50
2112;DHT22;1062;52.538;13.400;2023-05-01T07:46:04;19.70;75.90
2112;DHT22;1062;52.538;13.400;2023-05-01T07:48:31;19.60;72.00
2112;DHT22;1062;52.538;13.400;2023-05-01T07:51:01;19.00;73.90
2112;DHT22;1062;52.538;13.400;2023-05-01T07:53:27;18.60;72.80
2112;DHT22;1062;52.538;13.400;2023-05-01T07:55:52;18.50;73.70
2112;DHT22;1062;52.538;13.400;2023-05-01T07:58:18;19.40;73.70
2112;DHT22;1062;52.538;13.400;2023-05-01T08:00:43;19.00;72.80
2112;DHT22;1062;52.538;13.400;2023-05-01T08:03:10;18.50;74.50
2112;DHT22;1062;52.538;13.400;2023-05-01T08:05:39;19.00;76.10
2112;DHT22;1062;52.538;13.400;2023-05-01T08:08:05;18.80;75.30
2112;DHT22;1062;52.538;13.400;2023-05-01T08:10:31;18.90;74.50
2112;DHT22;1062;52.538;13.400;2023-05-01T08:12:56;18.50;75.60
2112;DHT22;1062;52.538;13.400;2023-05-01T08:15:22;18.80;77.40
2112;DHT22;1062;52.538;13.400;2023-05-01T08:17:48;19.10;77.10
2112;DHT22;1062;52.538;13.400;2023-05-01T08:20:15;19.50;73.60
2112;DHT22;1062;52.538;13.400;2023-05-01T08:22:41;20.20;69.40
2112;DHT22;1062;52.538;13.400;2023-05-01T08:25:06;19.50;70.40
2112;DHT22;1062;52.538;13.400;2023-05-01T08:27:32;19.30;72.20
2112;DHT22;1062;52.538;13.400;2023-05-01T08:29:58;19.00;73.20
2112;DHT22;1062;52.538;13.400;2023-05-01T08:32:23;19.30;72.50
2112;DHT22;1062;52.538;13.400;2023-05-01T08:34:49;20.40;71.50
2112;DHT22;1062;52.538;13.400;2023-05-01T08:37:15;20.40;68.60
2112;DHT22;1062;52.538;13.400;2023-05-01T08:39:41;21.10;66.70
2112;DHT22;1062;52.538;13.400;2023-05-01T08:42:07;21.00;65.60
2112;DHT22;1062;52.538;13.400;2023-05-01T08:44:39;21.70;63.00
2112;DHT22;1062;52.538;13.400;2023-05-01T08:47:19;21.40;62.70
2112;DHT22;1062;52.538;13.400;2023-05-01T08:49:47;21.90;62.10
2112;DHT22;1062;52.538;13.400;2023-05-01T08:52:15;21.80;61.80
2112;DHT22;1062;52.538;13.400;2023-05-01T08:54:44;21.00;66.50
2112;DHT22;1062;52.538;13.400;2023-05-01T08:57:11;21.70;61.50
2112;DHT22;1062;52.538;13.400;2023-05-01T08:59:38;21.60;61.50
2112;DHT22;1062;52.538;13.400;2023-05-01T09:02:06;21.90;60.50
2112;DHT22;1062;52.538;13.400;2023-05-01T09:04:34;21.00;61.70
2112;DHT22;1062;52.538;13.400;2023-05-01T09:07:01;20.30;59.90
2112;DHT22;1062;52.538;13.400;2023-05-01T09:09:31;20.50;60.70
2112;DHT22;1062;52.538;13.400;2023-05-01T09:14:38;19.60;60.50
2112;DHT22;1062;52.538;13.400;2023-05-01T09:17:04;20.80;59.50
2112;DHT22;1062;52.538;13.400;2023-05-01T09:19:29;20.10;63.20
2112;DHT22;1062;52.538;13.400;2023-05-01T09:21:55;20.00;60.20
2112;DHT22;1062;52.538;13.400;2023-05-01T09:24:23;20.00;60.10
2112;DHT22;1062;52.538;13.400;2023-05-01T09:26:50;20.20;60.70
2112;DHT22;1062;52.538;13.400;2023-05-01T09:29:51;20.90;60.60
2112;DHT22;1062;52.538;13.400;2023-05-01T09:32:21;20.80;62.80
2112;DHT22;1062;52.538;13.400;2023-05-01T09:34:48;20.30;62.10
2112;DHT22;1062;52.538;13.400;2023-05-01T09:37:30;20.40;60.20
2112;DHT22;1062;52.538;13.400;2023-05-01T09:40:14;21.20;60.60
2112;DHT22;1062;52.538;13.400;2023-05-01T09:42:48;22.00;58.20
2112;DHT22;1062;52.538;13.400;2023-05-01T09:45:14;22.30;57.50
2112;DHT22;1062;52.538;13.400;2023-05-01T09:47:40;21.80;59.50
2112;DHT22;1062;52.538;13.400;2023-05-01T09:50:07;21.00;61.30
2112;DHT22;1062;52.538;13.400;2023-05-01T09:52:32;20.50;59.80
2112;DHT22;1062;52.538;13.400;2023-05-01T09:57:36;20.70;58.60
2112;DHT22;1062;52.538;13.400;2023-05-01T10:00:03;20.60;58.90
2112;DHT22;1062;52.538;13.400;2023-05-01T10:02:33;20.00;59.90
2112;DHT22;1062;52.538;13.400;2023-05-01T10:04:59;18.90;62.80
2112;DHT22;1062;52.538;13.400;2023-05-01T10:07:25;19.50;64.60
2112;DHT22;1062;52.538;13.400;2023-05-01T10:09:52;19.50;63.30
2112;DHT22;1062;52.538;13.400;2023-05-01T10:12:28;19.40;67.30
2112;DHT22;1062;52.538;13.400;2023-05-01T10:14:55;19.30;64.30
2112;DHT22;1062;52.538;13.400;2023-05-01T10:17:21;19.60;62.20
2112;DHT22;1062;52.538;13.400;2023-05-01T10:19:48;19.40;61.70
2112;DHT22;1062;52.538;13.400;2023-05-01T10:22:14;19.10;63.30
2112;DHT22;1062;52.538;13.400;2023-05-01T10:24:42;19.20;62.70
2112;DHT22;1062;52.538;13.400;2023-05-01T10:27:08;19.20;63.60
2112;DHT22;1062;52.538;13.400;2023-05-01T10:29:36;19.00;65.20
2112;DHT22;1062;52.538;13.400;2023-05-01T10:32:03;18.70;67.30
2112;DHT22;1062;52.538;13.400;2023-05-01T10:34:34;18.40;64.70
2112;DHT22;1062;52.538;13.400;2023-05-01T10:37:05;18.30;65.10
2112;DHT22;1062;52.538;13.400;2023-05-01T10:39:35;18.30;67.10
2112;DHT22;1062;52.538;13.400;2023-05-01T10:42:05;18.20;69.50
2112;DHT22;1062;52.538;13.400;2023-05-01T10:44:32;18.20;66.20
2112;DHT22;1062;52.538;13.400;2023-05-01T10:46:59;18.10;66.90
2112;DHT22;1062;52.538;13.400;2023-05-01T10:50:14;18.20;66.80
2112;DHT22;1062;52.538;13.400;2023-05-01T10:55:40;18.40;68.00
2112;DHT22;1062;52.538;13.400;2023-05-01T10:58:13;18.60;67.70
2112;DHT22;1062;52.538;13.400;2023-05-01T11:00:39;18.50;66.30
2112;DHT22;1062;52.538;13.400;2023-05-01T11:08:36;18.80;66.60
2112;DHT22;1062;52.538;13.400;2023-05-01T11:14:06;18.90;67.40
2112;DHT22;1062;52.538;13.400;2023-05-01T11:18:59;18.60;63.80
2112;DHT22;1062;52.538;13.400;2023-05-01T11:21:32;18.30;65.70
2112;DHT22;1062;52.538;13.400;2023-05-01T11:24:08;18.20;67.20
2112;DHT22;1062;52.538;13.400;2023-05-01T11:26:38;17.90;66.60
2112;DHT22;1062;52.538;13.400;2023-05-01T11:29:04;18.00;66.80
2112;DHT22;1062;52.538;13.400;2023-05-01T11:31:31;18.20;65.40
2112;DHT22;1062;52.538;13.400;2023-05-01T11:34:00;18.20;66.00
2112;DHT22;1062;52.538;13.400;2023-05-01T11:36:28;18.50;67.50
2112;DHT22;1062;52.538;13.400;2023-05-01T11:38:56;18.80;65.60
2112;DHT22;1062;52.538;13.400;2023-05-01T11:41:26;19.00;64.10
2112;DHT22;1062;52.538;13.400;2023-05-01T11:43:57;19.10;63.00
2112;DHT22;1062;52.538;13.400;2023-05-01T11:46:31;19.00;64.40
2112;DHT22;1062;52.538;13.400;2023-05-01T11:48:58;18.90;64.20
2112;DHT22;1062;52.538;13.400;2023-05-01T11:51:24;19.30;65.70
2112;DHT22;1062;52.538;13.400;2023-05-01T11:56:26;19.90;63.60
2112;DHT22;1062;52.538;13.400;2023-05-01T11:58:54;20.10;62.70
2112;DHT22;1062;52.538;13.400;2023-05-01T12:01:19;19.70;63.30
2112;DHT22;1062;52.538;13.400;2023-05-01T12:03:45;19.60;63.90
2112;DHT22;1062;52.538;13.400;2023-05-01T12:06:11;19.90;63.60
2112;DHT22;1062;52.538;13.400;2023-05-01T12:08:44;20.00;62.20
2112;DHT22;1062;52.538;13.400;2023-05-01T12:11:11;19.70;62.10
2112;DHT22;1062;52.538;13.400;2023-05-01T12:13:38;19.50;62.30
2112;DHT22;1062;52.538;13.400;2023-05-01T12:16:05;19.50;64.20
2112;DHT22;1062;52.538;13.400;2023-05-01T12:18:31;19.40;64.70
2112;DHT22;1062;52.538;13.400;2023-05-01T12:20:57;19.10;65.10
2112;DHT22;1062;52.538;13.400;2023-05-01T12:23:35;19.40;63.40
2112;DHT22;1062;52.538;13.400;2023-05-01T12:26:29;19.40;64.30
2112;DHT22;1062;52.538;13.400;2023-05-01T12:29:00;19.60;65.30
2112;DHT22;1062;52.538;13.400;2023-05-01T12:31:26;19.80;64.00
2112;DHT22;1062;52.538;13.400;2023-05-01T12:33:57;19.90;63.10
2112;DHT22;1062;52.538;13.400;2023-05-01T12:36:24;19.70;62.10
2112;DHT22;1062;52.538;13.400;2023-05-01T12:39:02;19.60;64.60
2112;DHT22;1062;52.538;13.400;2023-05-01T12:41:49;19.70;62.90
2112;DHT22;1062;52.538;13.400;2023-05-01T12:44:26;19.80;62.40
2112;DHT22;1062;52.538;13.400;2023-05-01T12:46:59;19.80;62.30
2112;DHT22;1062;52.538;13.400;2023-05-01T12:49:26;19.90;62.90
2112;DHT22;1062;52.538;13.400;2023-05-01T12:51:56;19.60;64.40
2112;DHT22;1062;52.538;13.400;2023-05-01T12:54:29;19.90;62.10
2112;DHT22;1062;52.538;13.400;2023-05-01T12:57:08;19.70;63.40
2112;DHT22;1062;52.538;13.400;2023-05-01T12:59:36;19.80;64.80
2112;DHT22;1062;52.538;13.400;2023-05-01T13:02:06;20.00;65.00
2112;DHT22;1062;52.538;13.400;2023-05-01T13:04:33;20.10;63.20
2112;DHT22;1062;52.538;13.400;2023-05-01T13:06:59;20.20;64.50
2112;DHT22;1062;52.538;13.400;2023-05-01T13:09:26;20.20;62.90
2112;DHT22;1062;52.538;13.400;2023-05-01T13:12:00;19.90;63.30
2112;DHT22;1062;52.538;13.400;2023-05-01T13:14:28;20.20;63.50
2112;DHT22;1062;52.538;13.400;2023-05-01T13:16:55;20.40;62.60
2112;DHT22;1062;52.538;13.400;2023-05-01T13:19:27;20.40;62.60
2112;DHT22;1062;52.538;13.400;2023-05-01T13:21:54;20.40;63.60
2112;DHT22;1062;52.538;13.400;2023-05-01T13:24:21;20.00;64.50
2112;DHT22;1062;52.538;13.400;2023-05-01T13:26:48;19.80;67.10
2112;DHT22;1062;52.538;13.400;2023-05-01T13:29:20;20.00;64.60
2112;DHT22;1062;52.538;13.400;2023-05-01T13:31:47;19.90;63.60
2112;DHT22;1062;52.538;13.400;2023-05-01T13:34:16;19.80;63.90
2112;DHT22;1062;52.538;13.400;2023-05-01T13:36:44;19.90;62.50
2112;DHT22;1062;52.538;13.400;2023-05-01T13:39:17;20.00;62.60
2112;DHT22;1062;52.538;13.400;2023-05-01T13:41:44;20.10;62.30
2112;DHT22;1062;52.538;13.400;2023-05-01T13:44:10;20.10;62.90
2112;DHT22;1062;52.538;13.400;2023-05-01T13:46:40;20.40;62.40
2112;DHT22;1062;52.538;13.400;2023-05-01T13:49:06;20.40;62.10
2112;DHT22;1062;52.538;13.400;2023-05-01T13:51:33;20.10;62.10
2112;DHT22;1062;52.538;13.400;2023-05-01T13:54:02;20.10;61.90
2112;DHT22;1062;52.538;13.400;2023-05-01T13:56:28;20.10;61.40
2112;DHT22;1062;52.538;13.400;2023-05-01T13:58:53;20.20;62.00
2112;DHT22;1062;52.538;13.400;2023-05-01T14:01:20;20.30;61.30
2112;DHT22;1062;52.538;13.400;2023-05-01T14:03:47;20.50;61.90
2112;DHT22;1062;52.538;13.400;2023-05-01T14:06:18;20.20;61.30
2112;DHT22;1062;52.538;13.400;2023-05-01T14:08:45;20.40;62.00
2112;DHT22;1062;52.538;13.400;2023-05-01T14:11:11;20.50;63.00
2112;DHT22;1062;52.538;13.400;2023-05-01T14:13:45;20.80;63.20
2112;DHT22;1062;52.538;13.400;2023-05-01T14:16:24;20.60;62.40
2112;DHT22;1062;52.538;13.400;2023-05-01T14:18:52;20.60;62.10
2112;DHT22;1062;52.538;13.400;2023-05-01T14:21:19;20.70;60.20
2112;DHT22;1062;52.538;13.400;2023-05-01T14:23:44;20.50;59.40
2112;DHT22;1062;52.538;13.400;2023-05-01T14:26:15;20.20;60.50
2112;DHT22;1062;52.538;13.400;2023-05-01T14:28:42;20.30;61.80
2112;DHT22;1062;52.538;13.400;2023-05-01T14:33:42;20.30;60.70
2112;DHT22;1062;52.538;13.400;2023-05-01T14:36:08;20.00;62.70
2112;DHT22;1062;52.538;13.400;2023-05-01T14:38:33;20.10;63.30
2112;DHT22;1062;52.538;13.400;2023-05-01T14:41:03;20.20;61.80
2112;DHT22;1062;52.538;13.400;2023-05-01T14:43:30;20.20;61.80
2112;DHT22;1062;52.538;13.400;2023-05-01T14:45:57;20.20;62.10
2112;DHT22;1062;52.538;13.400;2023-05-01T14:48:24;20.00;61.80
2112;DHT22;1062;52.538;13.400;2023-05-01T14:50:51;20.10;61.40
2112;DHT22;1062;52.538;13.400;2023-05-01T14:53:17;20.10;60.80
2112;DHT22;1062;52.538;13.400;2023-05-01T14:55:42;20.00;61.80
2112;DHT22;1062;52.538;13.400;2023-05-01T14:58:08;20.00;60.90
2112;DHT22;1062;52.538;13.400;2023-05-01T15:00:34;20.00;60.90
2112;DHT22;1062;52.538;13.400;2023-05-01T15:03:00;19.60;61.90
2112;DHT22;1062;52.538;13.400;2023-05-01T15:05:26;19.40;62.40
2112;DHT22;1062;52.538;13.400;2023-05-01T15:07:55;19.30;62.80
2112;DHT22;1062;52.538;13.400;2023-05-01T15:10:21;19.30;63.10
2112;DHT22;1062;52.538;13.400;2023-05-01T15:12:48;19.10;64.10
2112;DHT22;1062;52.538;13.400;2023-05-01T15:15:14;19.30;64.50
2112;DHT22;1062;52.538;13.400;2023-05-01T15:17:39;19.30;64.40
2112;DHT22;1062;52.538;13.400;2023-05-01T15:20:05;19.40;63.90
2112;DHT22;1062;52.538;13.400;2023-05-01T15:22:31;19.40;64.30
2112;DHT22;1062;52.538;13.400;2023-05-01T15:24:57;19.30;63.70
2112;DHT22;1062;52.538;13.400;2023-05-01T15:27:22;19.30;64.70
2112;DHT22;1062;52.538;13.400;2023-05-01T15:29:48;19.20;65.60
2112;DHT22;1062;52.538;13.400;2023-05-01T15:32:13;19.30;64.50
2112;DHT22;1062;52.538;13.400;2023-05-01T15:34:39;19.30;64.60
2112;DHT22;1062;52.538;13.400;2023-05-01T15:37:06;19.10;67.10
2112;DHT22;1062;52.538;13.400;2023-05-01T15:39:31;19.20;66.60
2112;DHT22;1062;52.538;13.400;2023-05-01T15:41:57;19.30;66.40
2112;DHT22;1062;52.538;13.400;2023-05-01T15:44:23;19.30;67.30
2112;DHT22;1062;52.538;13.400;2023-05-01T15:46:50;19.40;66.80
2112;DHT22;1062;52.538;13.400;2023-05-01T15:49:17;19.60;66.60
2112;DHT22;1062;52.538;13.400;2023-05-01T15:51:43;19.60;65.50
2112;DHT22;1062;52.538;13.400;2023-05-01T15:54:08;19.70;65.70
2112;DHT22;1062;52.538;13.400;2023-05-01T15:56:35;19.70;65.40
2112;DHT22;1062;52.538;13.400;2023-05-01T15:59:05;19.50;65.70
2112;DHT22;1062;52.538;13.400;2023-05-01T16:01:32;19.60;65.80
2112;DHT22;1062;52.538;13.400;2023-05-01T16:03:58;19.50;66.30
2112;DHT22;1062;52.538;13.400;2023-05-01T16:06:24;19.60;65.50
2112;DHT22;1062;52.538;13.400;2023-05-01T16:08:50;19.60;65.30
2112;DHT22;1062;52.538;13.400;2023-05-01T16:11:17;19.50;65.60
2112;DHT22;1062;52.538;13.400;2023-05-01T16:13:43;19.40;66.60
2112;DHT22;1062;52.538;13.400;2023-05-01T16:16:10;19.40;66.00
2112;DHT22;1062;52.538;13.400;2023-05-01T16:18:41;19.50;66.70
2112;DHT22;1062;52.538;13.400;2023-05-01T16:21:10;19.30;66.70
2112;DHT22;1062;52.538;13.400;2023-05-01T16:23:38;19.20;67.60
2112;DHT22;1062;52.538;13.400;2023-05-01T16:26:04;19.10;67.60
2112;DHT22;1062;52.538;13.400;2023-05-01T16:28:32;19.10;68.70
2112;DHT22;1062;52.538;13.400;2023-05-01T16:30:58;19.10;68.60
2112;DHT22;1062;52.538;13.400;2023-05-01T16:33:23;19.40;68.20
2112;DHT22;1062;52.538;13.400;2023-05-01T16:35:49;19.50;67.70
2112;DHT22;1062;52.538;13.400;2023-05-01T16:38:15;19.30;68.90
2112;DHT22;1062;52.538;13.400;2023-05-01T16:40:42;19.40;67.30